createdAt,value
2022-10-24T00:01:17.422Z,18.86
2022-10-24T00:03:44.756Z,18.86
2022-10-24T00:06:13.534Z,18.87
2022-10-24T00:08:43.017Z,18.88
2022-10-24T00:11:12.591Z,18.85
2022-10-24T00:13:40.106Z,18.84
2022-10-24T00:16:08.006Z,18.79
2022-10-24T00:18:36.500Z,18.79
2022-10-24T00:21:06.317Z,18.76
2022-10-24T00:23:33.204Z,18.77
2022-10-24T00:26:00.029Z,18.74
2022-10-24T00:28:27.014Z,18.65
2022-10-24T00:30:54.062Z,18.68
2022-10-24T00:33:20.939Z,18.71
2022-10-24T00:35:49.198Z,18.62
2022-10-24T00:38:16.164Z,18.57
2022-10-24T00:40:43.256Z,18.48
2022-10-24T00:43:15.623Z,18.41
2022-10-24T00:45:47.928Z,18.42
2022-10-24T00:48:22.981Z,18.46
2022-10-24T00:50:56.808Z,18.44
2022-10-24T00:53:26.560Z,18.53
2022-10-24T00:55:58.451Z,18.56
2022-10-24T00:58:29.962Z,18.54
2022-10-24T01:00:57.520Z,18.60
2022-10-24T01:03:24.639Z,18.62
2022-10-24T01:06:21.267Z,18.56
2022-10-24T01:09:03.260Z,18.55
2022-10-24T01:11:55.608Z,18.59
2022-10-24T01:14:39.419Z,18.60
2022-10-24T01:17:17.372Z,18.52
2022-10-24T01:20:43.899Z,18.57
2022-10-24T01:23:49.745Z,18.63
2022-10-24T01:26:49.372Z,18.56
2022-10-24T01:29:33.400Z,18.51
2022-10-24T01:32:11.889Z,18.48
2022-10-24T01:34:48.337Z,18.37
2022-10-24T01:37:23.838Z,18.37
2022-10-24T01:39:59.431Z,18.24
2022-10-24T01:42:39.760Z,18.22
2022-10-24T01:45:15.212Z,18.26
2022-10-24T01:47:53.105Z,18.30
2022-10-24T01:50:24.543Z,18.30
2022-10-24T01:52:55.193Z,18.24
2022-10-24T01:55:23.279Z,18.28
2022-10-24T01:57:50.122Z,18.21
2022-10-24T02:00:22.857Z,18.16
2022-10-24T02:02:57.329Z,18.16
2022-10-24T02:05:30.889Z,18.28
2022-10-24T02:08:09.143Z,18.32
2022-10-24T02:10:42.064Z,18.36
2022-10-24T02:13:19.586Z,18.42
2022-10-24T02:15:55.280Z,18.38
2022-10-24T02:18:22.806Z,18.39
2022-10-24T02:20:58.727Z,18.31
2022-10-24T02:23:32.137Z,18.24
2022-10-24T02:26:04.834Z,18.15
2022-10-24T02:28:41.078Z,18.06
2022-10-24T02:31:16.516Z,17.98
2022-10-24T02:33:48.353Z,17.93
2022-10-24T02:36:22.995Z,17.97
2022-10-24T02:38:54.870Z,17.97
2022-10-24T02:41:31.951Z,18.07
2022-10-24T02:44:03.129Z,18.05
2022-10-24T02:46:34.391Z,18.11
2022-10-24T02:49:04.524Z,18.13
2022-10-24T02:51:38.312Z,18.23
2022-10-24T02:54:07.358Z,18.25
2022-10-24T02:56:40.287Z,18.13
2022-10-24T02:59:07.205Z,18.14
2022-10-24T03:01:35.442Z,18.13
2022-10-24T03:04:02.285Z,18.16
2022-10-24T03:06:29.072Z,18.14
2022-10-24T03:08:55.969Z,18.12
2022-10-24T03:11:22.896Z,18.13
2022-10-24T03:13:49.797Z,18.04
2022-10-24T03:16:16.609Z,18.06
2022-10-24T03:18:44.715Z,18.10
2022-10-24T03:21:11.653Z,18.04
2022-10-24T03:23:38.453Z,18.06
2022-10-24T03:26:05.840Z,18.11
2022-10-24T03:28:35.091Z,18.13
2022-10-24T03:31:01.995Z,18.16
2022-10-24T03:33:28.963Z,18.09
2022-10-24T03:35:57.535Z,18.04
2022-10-24T03:38:24.551Z,18.05
2022-10-24T03:40:51.715Z,18.09
2022-10-24T03:43:19.424Z,18.11
2022-10-24T03:45:46.570Z,18.10
2022-10-24T03:48:14.292Z,18.04
2022-10-24T03:50:41.432Z,18.02
2022-10-24T03:53:10.095Z,18.09
2022-10-24T03:55:36.883Z,18.12
2022-10-24T03:58:03.915Z,18.15
2022-10-24T04:00:30.798Z,18.16
2022-10-24T04:02:57.729Z,18.10
2022-10-24T04:05:24.654Z,18.05
2022-10-24T04:07:51.451Z,18.12
2022-10-24T04:10:20.002Z,17.98
2022-10-24T04:12:46.913Z,18.00
2022-10-24T04:15:13.683Z,18.10
2022-10-24T04:17:40.735Z,18.12
2022-10-24T04:20:08.604Z,18.08
2022-10-24T04:22:35.461Z,18.07
2022-10-24T04:25:02.445Z,18.08
2022-10-24T04:27:30.649Z,18.07
2022-10-24T04:29:57.459Z,18.08
2022-10-24T04:32:24.305Z,18.15
2022-10-24T04:34:51.419Z,18.11
2022-10-24T04:37:18.233Z,18.15
2022-10-24T04:39:45.087Z,18.10
2022-10-24T04:42:11.848Z,18.12
2022-10-24T04:44:40.084Z,18.07
2022-10-24T04:47:06.911Z,18.05
2022-10-24T04:49:33.780Z,18.03
2022-10-24T04:52:00.542Z,18.00
2022-10-24T04:54:27.322Z,18.02
2022-10-24T04:56:54.090Z,18.03
2022-10-24T04:59:20.938Z,18.04
2022-10-24T05:01:49.215Z,18.02
2022-10-24T05:04:16.341Z,17.97
2022-10-24T05:06:45.028Z,18.02
2022-10-24T05:09:12.515Z,18.02
2022-10-24T05:11:39.318Z,18.05
2022-10-24T05:14:06.136Z,18.08
2022-10-24T05:16:33.465Z,18.07
2022-10-24T05:19:01.623Z,18.01
2022-10-24T05:21:28.420Z,17.89
2022-10-24T05:23:55.183Z,17.84
2022-10-24T05:26:21.954Z,17.91
2022-10-24T05:28:51.685Z,17.98
2022-10-24T05:31:20.072Z,18.09
2022-10-24T05:33:47.085Z,18.11
2022-10-24T05:36:15.194Z,18.15
2022-10-24T05:38:42.099Z,18.07
2022-10-24T05:41:09.019Z,17.82
2022-10-24T05:43:35.834Z,17.82
2022-10-24T05:46:03.758Z,17.82
2022-10-24T05:48:30.504Z,17.73
2022-10-24T05:50:58.259Z,17.55
2022-10-24T05:53:27.554Z,17.02
2022-10-24T05:55:54.517Z,16.54
2022-10-24T05:58:21.268Z,16.41
2022-10-24T06:00:53.576Z,16.37
2022-10-24T06:03:21.073Z,16.09
2022-10-24T06:05:47.994Z,16.16
2022-10-24T06:08:14.783Z,16.26
2022-10-24T06:10:46.535Z,16.21
2022-10-24T06:13:40.043Z,16.04
2022-10-24T06:16:08.934Z,15.97
2022-10-24T06:18:37.056Z,15.90
2022-10-24T06:21:07.804Z,15.99
2022-10-24T06:23:34.767Z,16.24
2022-10-24T06:26:10.182Z,16.18
2022-10-24T06:28:37.891Z,16.17
2022-10-24T06:31:05.189Z,16.19
2022-10-24T06:33:32.146Z,16.22
2022-10-24T06:35:59.961Z,16.28
2022-10-24T06:38:26.849Z,16.37
2022-10-24T06:40:54.058Z,16.41
2022-10-24T06:43:22.377Z,16.31
2022-10-24T06:45:49.720Z,16.26
2022-10-24T06:48:16.701Z,16.33
2022-10-24T06:50:43.619Z,16.24
2022-10-24T06:53:10.565Z,16.27
2022-10-24T06:55:39.212Z,16.27
2022-10-24T06:58:07.040Z,16.28
2022-10-24T07:00:35.392Z,16.26
2022-10-24T07:03:02.396Z,16.29
2022-10-24T07:05:29.569Z,16.31
2022-10-24T07:07:56.483Z,16.31
2022-10-24T07:10:23.502Z,16.34
2022-10-24T07:12:50.275Z,16.23
2022-10-24T07:15:17.178Z,16.07
2022-10-24T07:17:45.754Z,16.02
2022-10-24T07:20:14.266Z,16.00
2022-10-24T07:22:42.121Z,16.06
2022-10-24T07:25:09.951Z,16.01
2022-10-24T07:27:37.186Z,16.09
2022-10-24T07:30:06.008Z,16.15
2022-10-24T07:32:33.282Z,16.22
2022-10-24T07:35:01.503Z,16.33
2022-10-24T07:37:28.266Z,16.27
2022-10-24T07:39:55.166Z,16.11
2022-10-24T07:42:21.973Z,16.11
2022-10-24T07:44:48.950Z,16.16
2022-10-24T07:47:15.813Z,16.25
2022-10-24T07:49:42.609Z,16.25
2022-10-24T07:52:10.800Z,16.32
2022-10-24T07:54:37.753Z,16.47
2022-10-24T07:57:05.118Z,16.53
2022-10-24T07:59:41.821Z,16.58
2022-10-24T08:02:11.279Z,16.64
2022-10-24T08:04:38.439Z,16.75
2022-10-24T08:07:05.483Z,16.70
2022-10-24T08:09:37.591Z,16.74
2022-10-24T08:12:04.683Z,16.80
2022-10-24T08:14:31.644Z,16.76
2022-10-24T08:16:58.411Z,16.76
2022-10-24T08:21:52.254Z,16.64
2022-10-24T08:24:19.263Z,16.64
2022-10-24T08:26:47.485Z,16.69
2022-10-24T08:29:14.651Z,16.71
2022-10-24T08:31:41.596Z,16.70
2022-10-24T08:34:10.828Z,16.78
2022-10-24T08:36:37.620Z,16.76
2022-10-24T08:39:04.869Z,16.83
2022-10-24T08:41:40.839Z,16.97
2022-10-24T08:44:20.805Z,17.07
2022-10-24T08:46:54.619Z,17.11
2022-10-24T08:49:33.318Z,17.05
2022-10-24T08:52:06.631Z,16.97
2022-10-24T08:54:39.509Z,16.94
2022-10-24T08:57:17.240Z,16.95
2022-10-24T08:59:47.533Z,17.01
2022-10-24T09:02:22.018Z,16.98
2022-10-24T09:04:56.753Z,17.05
2022-10-24T09:10:13.613Z,17.01
2022-10-24T09:12:40.689Z,16.94
2022-10-24T09:15:24.480Z,16.98
2022-10-24T09:17:53.021Z,17.00
2022-10-24T09:20:24.578Z,17.00
2022-10-24T09:22:53.278Z,17.01
2022-10-24T09:25:24.118Z,16.99
2022-10-24T09:27:51.698Z,17.01
2022-10-24T09:30:25.104Z,17.02
2022-10-24T09:32:57.230Z,17.05
2022-10-24T09:35:29.744Z,17.04
2022-10-24T09:38:18.563Z,17.04
2022-10-24T09:40:51.551Z,17.07
2022-10-24T09:43:29.057Z,17.12
2022-10-24T09:46:05.300Z,17.18
2022-10-24T09:48:45.989Z,17.24
2022-10-24T09:51:24.186Z,17.34
2022-10-24T09:54:07.287Z,17.37
2022-10-24T09:56:38.699Z,17.40
2022-10-24T09:59:34.241Z,17.46
2022-10-24T10:02:25.990Z,17.44
2022-10-24T10:05:18.272Z,17.46
2022-10-24T10:07:48.831Z,17.42
2022-10-24T10:10:31.399Z,17.45
2022-10-24T10:13:05.192Z,17.43
2022-10-24T10:15:37.607Z,17.35
2022-10-24T10:18:24.745Z,17.33
2022-10-24T10:21:11.753Z,17.34
2022-10-24T10:23:42.852Z,17.36
2022-10-24T10:26:23.830Z,17.37
2022-10-24T10:29:01.461Z,17.39
2022-10-24T10:31:43.761Z,17.40
2022-10-24T10:34:32.503Z,17.44
2022-10-24T10:37:25.983Z,17.41
2022-10-24T10:40:20.218Z,17.40
2022-10-24T10:43:10.937Z,17.42
2022-10-24T10:45:46.503Z,17.47
2022-10-24T10:52:11.850Z,17.55
2022-10-24T10:55:06.580Z,17.55
2022-10-24T10:57:45.782Z,17.61
2022-10-24T11:00:17.909Z,17.67
2022-10-24T11:03:23.987Z,17.62
2022-10-24T11:06:03.965Z,17.61
2022-10-24T11:08:55.946Z,17.64
2022-10-24T11:11:30.988Z,17.72
2022-10-24T11:14:08.793Z,17.79
2022-10-24T11:16:41.228Z,17.85
2022-10-24T11:19:22.691Z,17.86
2022-10-24T11:21:51.018Z,17.97
2022-10-24T11:24:23.734Z,18.07
2022-10-24T11:27:00.392Z,18.06
2022-10-24T11:29:36.880Z,18.15
2022-10-24T11:32:16.100Z,18.23
2022-10-24T11:34:51.203Z,18.28
2022-10-24T11:37:27.207Z,18.21
2022-10-24T11:40:00.891Z,18.19
2022-10-24T11:42:39.936Z,18.17
2022-10-24T11:45:12.723Z,18.11
2022-10-24T11:48:10.886Z,18.12
2022-10-24T11:50:45.294Z,18.17
2022-10-24T11:53:39.119Z,18.12
2022-10-24T11:56:16.604Z,18.11
2022-10-24T11:58:54.809Z,18.18
2022-10-24T12:01:51.309Z,18.11
2022-10-24T12:04:44.602Z,18.12
2022-10-24T12:08:08.988Z,18.14
2022-10-24T12:11:17.202Z,18.11
2022-10-24T12:14:22.949Z,18.16
2022-10-24T12:17:28.962Z,18.17
2022-10-24T12:19:56.863Z,18.13
2022-10-24T12:22:36.510Z,18.13
2022-10-24T12:25:17.065Z,18.12
2022-10-24T12:27:52.502Z,18.10
2022-10-24T12:30:21.813Z,18.12
2022-10-24T12:33:21.973Z,18.07
2022-10-24T12:35:53.036Z,18.08
2022-10-24T12:39:08.467Z,18.11
2022-10-24T12:41:41.649Z,18.14
2022-10-24T12:44:46.459Z,18.13
2022-10-24T12:47:45.453Z,18.15
2022-10-24T12:51:03.581Z,18.15
2022-10-24T12:53:38.641Z,18.22
2022-10-24T12:56:20.989Z,18.27
2022-10-24T12:59:14.899Z,18.33
2022-10-24T13:01:43.770Z,18.37
2022-10-24T13:04:51.400Z,18.41
2022-10-24T13:07:40.772Z,18.46
2022-10-24T13:10:33.339Z,18.46
2022-10-24T13:13:39.721Z,18.45
2022-10-24T13:16:22.608Z,18.49
2022-10-24T13:19:08.696Z,18.50
2022-10-24T13:21:47.223Z,18.54
2022-10-24T13:24:34.198Z,18.55
2022-10-24T13:27:31.521Z,18.60
2022-10-24T13:30:27.228Z,18.59
2022-10-24T13:33:40.162Z,18.75
2022-10-24T13:36:18.023Z,18.77
2022-10-24T13:38:53.047Z,18.81
2022-10-24T13:41:29.351Z,18.84
2022-10-24T13:44:05.938Z,18.86
2022-10-24T13:46:55.739Z,18.83
2022-10-24T13:49:31.392Z,18.80
2022-10-24T13:52:14.391Z,18.74
2022-10-24T13:54:48.102Z,18.75
2022-10-24T13:57:39.507Z,18.79
2022-10-24T14:00:18.994Z,18.75
2022-10-24T14:02:46.302Z,18.82
2022-10-24T14:05:30.258Z,18.81
2022-10-24T14:08:00.706Z,18.86
2022-10-24T14:10:29.486Z,18.94
2022-10-24T14:13:00.642Z,18.96
2022-10-24T14:15:32.192Z,18.96
2022-10-24T14:18:02.450Z,18.93
2022-10-24T14:20:32.956Z,19.03
2022-10-24T14:23:02.177Z,19.05
2022-10-24T14:25:34.417Z,19.12
2022-10-24T14:28:09.799Z,19.18
2022-10-24T14:30:36.760Z,19.20
2022-10-24T14:33:18.992Z,19.23
2022-10-24T14:35:47.907Z,19.12
2022-10-24T14:38:18.207Z,19.12
2022-10-24T14:40:53.930Z,19.11
2022-10-24T14:43:31.234Z,19.14
2022-10-24T14:46:26.002Z,19.20
2022-10-24T14:48:53.638Z,19.26
2022-10-24T14:51:43.013Z,19.28
2022-10-24T14:54:19.286Z,19.33
2022-10-24T14:56:47.296Z,19.35
2022-10-24T14:59:28.575Z,19.32
2022-10-24T15:02:22.034Z,19.30
2022-10-24T15:04:50.076Z,19.29
2022-10-24T15:07:29.861Z,19.25
2022-10-24T15:10:01.116Z,19.29
2022-10-24T15:12:34.038Z,19.30
2022-10-24T15:15:25.153Z,19.26
2022-10-24T15:17:56.957Z,19.27
2022-10-24T15:20:27.459Z,19.19
2022-10-24T15:22:58.658Z,19.15
2022-10-24T15:25:31.433Z,19.17
2022-10-24T15:27:59.304Z,19.07
2022-10-24T15:30:29.511Z,19.01
2022-10-24T15:33:01.239Z,18.91
2022-10-24T15:35:35.958Z,18.81
2022-10-24T15:38:10.816Z,18.74
2022-10-24T15:40:44.516Z,18.71
2022-10-24T15:43:12.903Z,18.62
2022-10-24T15:45:39.778Z,18.55
2022-10-24T15:48:06.843Z,18.57
2022-10-24T15:50:34.832Z,18.51
2022-10-24T15:53:04.844Z,18.44
2022-10-24T15:55:32.349Z,18.46
2022-10-24T15:58:00.513Z,18.41
2022-10-24T16:00:28.034Z,18.33
2022-10-24T16:03:00.585Z,18.25
2022-10-24T16:05:34.526Z,18.25
2022-10-24T16:08:01.411Z,18.20
2022-10-24T16:10:28.146Z,18.10
2022-10-24T16:12:55.070Z,18.08
2022-10-24T16:15:28.717Z,18.04
2022-10-24T16:17:55.792Z,18.09
2022-10-24T16:20:22.668Z,17.99
2022-10-24T16:22:50.406Z,17.87
2022-10-24T16:25:21.619Z,17.85
2022-10-24T16:27:49.285Z,17.83
2022-10-24T16:30:19.494Z,17.85
2022-10-24T16:32:49.025Z,17.84
2022-10-24T16:35:18.261Z,17.84
2022-10-24T16:37:45.663Z,17.82
2022-10-24T16:40:12.731Z,17.71
2022-10-24T16:42:39.957Z,17.73
2022-10-24T16:45:08.998Z,17.67
2022-10-24T16:47:36.288Z,17.66
2022-10-24T16:50:07.057Z,17.72
2022-10-24T16:52:34.143Z,17.68
2022-10-24T16:55:00.941Z,17.67
2022-10-24T16:57:27.715Z,17.64
2022-10-24T16:59:54.760Z,17.59
2022-10-24T17:02:21.624Z,17.57
2022-10-24T17:04:48.647Z,17.60
2022-10-24T17:07:16.943Z,17.53
2022-10-24T17:09:43.757Z,17.59
2022-10-24T17:12:10.766Z,17.57
2022-10-24T17:14:37.593Z,17.46
2022-10-24T17:17:04.873Z,17.42
2022-10-24T17:19:31.956Z,17.35
2022-10-24T17:21:59.015Z,17.37
2022-10-24T17:24:27.824Z,17.27
2022-10-24T17:26:55.179Z,17.26
2022-10-24T17:29:27.042Z,17.19
2022-10-24T17:31:55.302Z,17.17
2022-10-24T17:34:23.256Z,17.15
2022-10-24T17:37:02.589Z,17.05
2022-10-24T17:39:45.596Z,16.97
2022-10-24T17:42:13.308Z,16.98
2022-10-24T17:44:40.741Z,16.97
2022-10-24T17:47:25.243Z,17.01
2022-10-24T17:49:52.125Z,17.01
2022-10-24T17:52:23.288Z,17.01
2022-10-24T17:54:51.604Z,17.05
2022-10-24T17:57:18.447Z,16.97
2022-10-24T17:59:45.208Z,16.89
2022-10-24T18:02:13.831Z,16.80
2022-10-24T18:04:41.247Z,16.74
2022-10-24T18:07:08.774Z,16.72
2022-10-24T18:09:35.619Z,16.66
2022-10-24T18:12:04.215Z,16.55
2022-10-24T18:14:31.017Z,16.29
2022-10-24T18:16:57.814Z,15.95
2022-10-24T18:19:24.547Z,15.88
2022-10-24T18:22:08.841Z,15.64
2022-10-24T18:24:36.677Z,15.44
2022-10-24T18:27:10.355Z,15.22
2022-10-24T18:29:38.043Z,14.88
2022-10-24T18:32:05.217Z,14.47
2022-10-24T18:34:33.693Z,14.26
2022-10-24T18:37:00.502Z,14.10
2022-10-24T18:39:29.267Z,13.99
2022-10-24T18:42:08.924Z,13.95
2022-10-24T18:44:36.729Z,13.94
2022-10-24T18:47:07.455Z,14.02
2022-10-24T18:49:35.739Z,13.93
2022-10-24T18:52:17.180Z,13.95
2022-10-24T18:54:56.644Z,13.86
2022-10-24T18:57:29.452Z,13.93
2022-10-24T18:59:58.549Z,13.91
2022-10-24T19:02:36.440Z,13.94
2022-10-24T19:05:22.269Z,13.82
2022-10-24T19:07:54.403Z,13.58
2022-10-24T19:10:27.150Z,13.48
2022-10-24T19:12:56.072Z,13.38
2022-10-24T19:15:24.112Z,13.27
2022-10-24T19:17:51.907Z,13.40
2022-10-24T19:20:21.759Z,13.36
2022-10-24T19:22:49.101Z,13.36
2022-10-24T19:25:17.522Z,13.41
2022-10-24T19:27:45.216Z,13.42
2022-10-24T19:30:14.053Z,13.45
2022-10-24T19:32:40.941Z,13.51
2022-10-24T19:35:08.344Z,13.51
2022-10-24T19:37:35.192Z,13.59
2022-10-24T19:40:02.200Z,13.64
2022-10-24T19:42:31.328Z,13.64
2022-10-24T19:44:58.295Z,13.64
2022-10-24T19:47:29.228Z,13.60
2022-10-24T19:49:56.248Z,-140.58
2022-10-24T19:52:26.160Z,-140.58
2022-10-24T19:54:53.109Z,-140.58
2022-10-24T19:57:20.052Z,-140.58
2022-10-24T19:59:47.049Z,-140.58
2022-10-24T20:02:15.429Z,-140.58
2022-10-24T20:04:48.105Z,-140.58
2022-10-24T20:07:16.138Z,-140.58
2022-10-24T20:09:44.598Z,-140.58
2022-10-24T20:12:12.250Z,-140.58
2022-10-24T20:14:39.224Z,-140.58
2022-10-24T20:17:06.144Z,-140.58
2022-10-24T20:19:33.087Z,-140.58
2022-10-24T20:22:02.479Z,-140.58
2022-10-24T20:24:29.534Z,-140.58
2022-10-24T20:26:56.725Z,-140.58
2022-10-24T20:29:23.604Z,-140.58
2022-10-24T20:31:50.687Z,-140.58
2022-10-24T20:34:17.598Z,-140.58
2022-10-24T20:36:51.279Z,-140.58
2022-10-24T20:39:21.891Z,-140.58
2022-10-24T20:41:51.801Z,-140.58
2022-10-24T20:44:21.631Z,-140.58
2022-10-24T20:46:51.456Z,-140.58
2022-10-24T20:49:21.303Z,-140.58
2022-10-24T20:51:48.312Z,-140.58
2022-10-24T20:54:15.207Z,-140.58
2022-10-24T20:56:43.425Z,-140.58
2022-10-24T20:59:13.337Z,-140.58
2022-10-24T21:01:40.838Z,-140.58
2022-10-24T21:04:07.788Z,-140.58
2022-10-24T21:06:34.852Z,-140.58
2022-10-24T21:09:05.267Z,-140.58
2022-10-24T21:11:34.785Z,-140.58
2022-10-24T21:14:06.439Z,-140.58
2022-10-24T21:16:34.432Z,-140.58
2022-10-24T21:19:01.893Z,-140.58
2022-10-24T21:21:29.727Z,-140.58
2022-10-24T21:24:02.656Z,-140.58
2022-10-24T21:26:32.841Z,-140.58
2022-10-24T21:29:09.000Z,-140.58
2022-10-24T21:31:43.202Z,-140.58
2022-10-24T21:34:10.201Z,-140.58
2022-10-24T21:36:37.035Z,-140.58
2022-10-24T21:39:04.190Z,-140.58
2022-10-24T21:41:30.980Z,-140.58
2022-10-24T21:43:58.660Z,-140.58
2022-10-24T21:46:27.335Z,-140.58
2022-10-24T21:48:57.095Z,-140.58
2022-10-24T21:51:27.270Z,-140.58
2022-10-24T21:53:56.644Z,-140.58
2022-10-24T21:56:28.726Z,-140.58
2022-10-24T21:58:58.677Z,-140.58
2022-10-24T22:01:29.034Z,-140.58
2022-10-24T22:03:59.699Z,-140.58
2022-10-24T22:06:31.146Z,-140.58
2022-10-24T22:08:58.975Z,-140.58
2022-10-24T22:11:29.421Z,-140.58
2022-10-24T22:13:58.297Z,-140.58
2022-10-24T22:16:30.545Z,-140.58
2022-10-24T22:19:02.345Z,-140.58
2022-10-24T22:21:32.172Z,-140.58
2022-10-24T22:24:02.182Z,-140.58
2022-10-24T22:26:29.611Z,-140.58
2022-10-24T22:28:57.360Z,-140.58
2022-10-24T22:31:26.981Z,-140.58
2022-10-24T22:33:56.615Z,-140.58
2022-10-24T22:36:42.394Z,-140.58
2022-10-24T22:39:18.983Z,-140.58
2022-10-24T22:41:47.645Z,-140.58
2022-10-24T22:44:17.951Z,-140.58
2022-10-24T22:47:21.342Z,-140.58
2022-10-24T22:50:07.159Z,-140.58
2022-10-24T22:52:36.225Z,-140.58
2022-10-24T22:55:04.767Z,-140.58
2022-10-24T23:00:07.804Z,-140.58
2022-10-24T23:02:44.522Z,-140.58
2022-10-24T23:05:26.399Z,-140.58
2022-10-24T23:08:03.586Z,-140.58
2022-10-24T23:10:30.840Z,-140.58
2022-10-24T23:12:58.750Z,-140.58
2022-10-24T23:15:26.629Z,-140.58
2022-10-24T23:17:54.332Z,-140.58
2022-10-24T23:20:36.286Z,-140.58
2022-10-24T23:23:17.135Z,-140.58
2022-10-24T23:26:03.588Z,-140.58
2022-10-24T23:28:46.240Z,-140.58
2022-10-24T23:31:13.928Z,-140.58
2022-10-24T23:33:41.768Z,-140.58
2022-10-24T23:36:19.653Z,-140.58
2022-10-24T23:38:49.189Z,-140.58
2022-10-24T23:41:16.938Z,-140.58
2022-10-24T23:43:44.578Z,-140.58
2022-10-24T23:46:24.781Z,-140.58
2022-10-24T23:49:17.554Z,-140.58
2022-10-24T23:52:01.060Z,-140.58
2022-10-24T23:54:33.169Z,-140.58
2022-10-24T23:57:01.543Z,-140.58
2022-10-24T23:59:28.877Z,-140.58
